sensor_id;sensor_type;location;lat;lon;timestamp;temperature;humidity
11126;DHT22;5617;54.046;10.676;2023-07-29T00:01:24;17.00;99.90
11126;DHT22;5617;54.046;10.676;2023-07-29T00:03:32;17.00;99.90
11126;DHT22;5617;54.046;10.676;2023-07-29T00:05:40;17.00;99.90
11126;DHT22;5617;54.046;10.676;2023-07-29T00:07:48;17.00;99.90
11126;DHT22;5617;54.046;10.676;2023-07-29T00:09:56;17.00;99.90
11126;DHT22;5617;54.046;10.676;2023-07-29T00:12:05;17.00;99.90
11126;DHT22;5617;54.046;10.676;2023-07-29T00:14:14;17.00;99.90
11126;DHT22;5617;54.046;10.676;2023-07-29T00:16:23;17.00;99.90
11126;DHT22;5617;54.046;10.676;2023-07-29T00:18:32;17.00;99.90
11126;DHT22;5617;54.046;10.676;2023-07-29T00:20:40;16.90;99.90
11126;DHT22;5617;54.046;10.676;2023-07-29T00:22:48;16.80;99.90
11126;DHT22;5617;54.046;10.676;2023-07-29T00:25:00;16.80;99.90
11126;DHT22;5617;54.046;10.676;2023-07-29T00:27:09;16.70;99.90
11126;DHT22;5617;54.046;10.676;2023-07-29T00:29:16;16.70;99.90
11126;DHT22;5617;54.046;10.676;2023-07-29T00:31:26;16.70;99.90
11126;DHT22;5617;54.046;10.676;2023-07-29T00:33:34;16.70;99.90
11126;DHT22;5617;54.046;10.676;2023-07-29T00:35:42;16.80;99.90
11126;DHT22;5617;54.046;10.676;2023-07-29T00:37:50;16.70;99.90
11126;DHT22;5617;54.046;10.676;2023-07-29T00:39:58;16.80;99.90
11126;DHT22;5617;54.046;10.676;2023-07-29T00:42:06;16.80;99.90
11126;DHT22;5617;54.046;10.676;2023-07-29T00:44:19;16.80;99.90
11126;DHT22;5617;54.046;10.676;2023-07-29T00:46:28;16.80;99.90
11126;DHT22;5617;54.046;10.676;2023-07-29T00:48:37;16.80;99.90
11126;DHT22;5617;54.046;10.676;2023-07-29T00:50:48;16.80;99.90
11126;DHT22;5617;54.046;10.676;2023-07-29T00:52:56;16.80;99.90
11126;DHT22;5617;54.046;10.676;2023-07-29T00:55:05;16.70;99.90
11126;DHT22;5617;54.046;10.676;2023-07-29T00:57:15;16.70;99.90
11126;DHT22;5617;54.046;10.676;2023-07-29T00:59:25;16.80;99.90
11126;DHT22;5617;54.046;10.676;2023-07-29T01:01:36;16.80;99.90
11126;DHT22;5617;54.046;10.676;2023-07-29T01:03:45;16.80;99.90
11126;DHT22;5617;54.046;10.676;2023-07-29T01:06:01;16.80;99.90
11126;DHT22;5617;54.046;10.676;2023-07-29T01:08:18;16.80;99.90
11126;DHT22;5617;54.046;10.676;2023-07-29T01:10:36;16.80;99.90
11126;DHT22;5617;54.046;10.676;2023-07-29T01:12:54;16.80;99.90
11126;DHT22;5617;54.046;10.676;2023-07-29T01:15:11;16.80;99.90
11126;DHT22;5617;54.046;10.676;2023-07-29T01:17:29;16.80;99.90
11126;DHT22;5617;54.046;10.676;2023-07-29T01:19:52;16.70;99.90
11126;DHT22;5617;54.046;10.676;2023-07-29T01:22:04;16.70;99.90
11126;DHT22;5617;54.046;10.676;2023-07-29T01:24:14;16.70;99.90
11126;DHT22;5617;54.046;10.676;2023-07-29T01:26:22;16.70;99.90
11126;DHT22;5617;54.046;10.676;2023-07-29T01:28:31;16.70;99.90
11126;DHT22;5617;54.046;10.676;2023-07-29T01:30:40;16.70;99.90
11126;DHT22;5617;54.046;10.676;2023-07-29T01:32:54;16.80;99.90
11126;DHT22;5617;54.046;10.676;2023-07-29T01:35:14;16.80;99.90
11126;DHT22;5617;54.046;10.676;2023-07-29T01:37:32;16.80;99.90
11126;DHT22;5617;54.046;10.676;2023-07-29T01:39:42;16.80;99.90
11126;DHT22;5617;54.046;10.676;2023-07-29T01:41:55;16.80;99.90
11126;DHT22;5617;54.046;10.676;2023-07-29T01:44:03;16.80;99.90
11126;DHT22;5617;54.046;10.676;2023-07-29T01:46:13;16.80;99.90
11126;DHT22;5617;54.046;10.676;2023-07-29T01:48:21;16.80;99.90
11126;DHT22;5617;54.046;10.676;2023-07-29T01:50:29;16.80;99.90
11126;DHT22;5617;54.046;10.676;2023-07-29T01:52:38;16.80;99.90
11126;DHT22;5617;54.046;10.676;2023-07-29T01:54:48;16.80;99.90
11126;DHT22;5617;54.046;10.676;2023-07-29T01:56:56;16.80;99.90
11126;DHT22;5617;54.046;10.676;2023-07-29T01:59:03;16.90;99.90
11126;DHT22;5617;54.046;10.676;2023-07-29T02:01:13;16.90;99.90
11126;DHT22;5617;54.046;10.676;2023-07-29T02:03:22;16.90;99.90
11126;DHT22;5617;54.046;10.676;2023-07-29T02:05:30;16.90;99.90
11126;DHT22;5617;54.046;10.676;2023-07-29T02:07:38;16.90;99.90
11126;DHT22;5617;54.046;10.676;2023-07-29T02:09:45;16.90;99.90
11126;DHT22;5617;54.046;10.676;2023-07-29T02:11:55;16.90;99.90
11126;DHT22;5617;54.046;10.676;2023-07-29T02:14:02;16.90;99.90
11126;DHT22;5617;54.046;10.676;2023-07-29T02:16:10;16.90;99.90
11126;DHT22;5617;54.046;10.676;2023-07-29T02:18:19;17.00;99.90
11126;DHT22;5617;54.046;10.676;2023-07-29T02:20:27;17.00;99.90
11126;DHT22;5617;54.046;10.676;2023-07-29T02:22:34;17.00;99.90
11126;DHT22;5617;54.046;10.676;2023-07-29T02:24:42;17.00;99.90
11126;DHT22;5617;54.046;10.676;2023-07-29T02:26:50;17.00;99.90
11126;DHT22;5617;54.046;10.676;2023-07-29T02:28:59;17.10;99.90
11126;DHT22;5617;54.046;10.676;2023-07-29T02:31:15;17.00;99.90
11126;DHT22;5617;54.046;10.676;2023-07-29T02:33:24;17.00;99.90
11126;DHT22;5617;54.046;10.676;2023-07-29T02:35:35;17.10;99.90
11126;DHT22;5617;54.046;10.676;2023-07-29T02:37:42;17.10;99.90
11126;DHT22;5617;54.046;10.676;2023-07-29T02:39:50;17.10;99.90
11126;DHT22;5617;54.046;10.676;2023-07-29T02:41:58;17.10;99.90
11126;DHT22;5617;54.046;10.676;2023-07-29T02:44:06;17.10;99.90
11126;DHT22;5617;54.046;10.676;2023-07-29T02:46:14;17.20;99.90
11126;DHT22;5617;54.046;10.676;2023-07-29T02:48:22;17.20;99.90
11126;DHT22;5617;54.046;10.676;2023-07-29T02:50:30;17.20;99.90
11126;DHT22;5617;54.046;10.676;2023-07-29T02:52:38;17.20;99.90
11126;DHT22;5617;54.046;10.676;2023-07-29T02:54:46;17.20;99.90
11126;DHT22;5617;54.046;10.676;2023-07-29T02:56:54;17.20;99.90
11126;DHT22;5617;54.046;10.676;2023-07-29T02:59:02;17.20;99.90
11126;DHT22;5617;54.046;10.676;2023-07-29T03:01:11;17.30;99.90
11126;DHT22;5617;54.046;10.676;2023-07-29T03:03:19;17.20;99.90
11126;DHT22;5617;54.046;10.676;2023-07-29T03:05:28;17.20;99.90
11126;DHT22;5617;54.046;10.676;2023-07-29T03:07:35;17.30;99.90
11126;DHT22;5617;54.046;10.676;2023-07-29T03:09:43;17.30;99.90
11126;DHT22;5617;54.046;10.676;2023-07-29T03:11:51;17.30;99.90
11126;DHT22;5617;54.046;10.676;2023-07-29T03:14:01;17.30;99.90
11126;DHT22;5617;54.046;10.676;2023-07-29T03:16:23;17.30;99.90
11126;DHT22;5617;54.046;10.676;2023-07-29T03:18:32;17.30;99.90
11126;DHT22;5617;54.046;10.676;2023-07-29T03:20:40;17.30;99.90
11126;DHT22;5617;54.046;10.676;2023-07-29T03:22:48;17.30;99.90
11126;DHT22;5617;54.046;10.676;2023-07-29T03:24:56;17.30;99.90
11126;DHT22;5617;54.046;10.676;2023-07-29T03:27:04;17.30;99.90
11126;DHT22;5617;54.046;10.676;2023-07-29T03:29:13;17.40;99.90
11126;DHT22;5617;54.046;10.676;2023-07-29T03:31:22;17.40;99.90
11126;DHT22;5617;54.046;10.676;2023-07-29T03:33:30;17.40;99.90
11126;DHT22;5617;54.046;10.676;2023-07-29T03:35:38;17.40;99.90
11126;DHT22;5617;54.046;10.676;2023-07-29T03:37:46;17.40;99.90
11126;DHT22;5617;54.046;10.676;2023-07-29T03:39:54;17.40;99.90
11126;DHT22;5617;54.046;10.676;2023-07-29T03:42:03;17.30;99.90
11126;DHT22;5617;54.046;10.676;2023-07-29T03:44:10;17.30;99.90
11126;DHT22;5617;54.046;10.676;2023-07-29T03:46:18;17.40;99.90
11126;DHT22;5617;54.046;10.676;2023-07-29T03:48:29;17.40;99.90
11126;DHT22;5617;54.046;10.676;2023-07-29T03:50:38;17.50;99.90
11126;DHT22;5617;54.046;10.676;2023-07-29T03:52:46;17.60;99.90
11126;DHT22;5617;54.046;10.676;2023-07-29T03:54:54;17.70;99.90
11126;DHT22;5617;54.046;10.676;2023-07-29T03:57:02;17.70;99.90
11126;DHT22;5617;54.046;10.676;2023-07-29T03:59:10;17.80;99.90
11126;DHT22;5617;54.046;10.676;2023-07-29T04:01:17;17.90;99.90
11126;DHT22;5617;54.046;10.676;2023-07-29T04:03:25;17.90;99.90
11126;DHT22;5617;54.046;10.676;2023-07-29T04:05:35;17.90;99.90
11126;DHT22;5617;54.046;10.676;2023-07-29T04:07:43;17.90;99.90
11126;DHT22;5617;54.046;10.676;2023-07-29T04:09:51;18.00;99.90
11126;DHT22;5617;54.046;10.676;2023-07-29T04:11:59;18.00;99.90
11126;DHT22;5617;54.046;10.676;2023-07-29T04:14:07;18.00;99.90
11126;DHT22;5617;54.046;10.676;2023-07-29T04:16:15;18.10;99.90
11126;DHT22;5617;54.046;10.676;2023-07-29T04:18:23;18.10;99.90
11126;DHT22;5617;54.046;10.676;2023-07-29T04:20:31;18.10;99.90
11126;DHT22;5617;54.046;10.676;2023-07-29T04:22:41;18.10;99.90
11126;DHT22;5617;54.046;10.676;2023-07-29T04:24:49;18.10;99.90
11126;DHT22;5617;54.046;10.676;2023-07-29T04:26:57;18.10;99.90
11126;DHT22;5617;54.046;10.676;2023-07-29T04:29:05;18.20;99.90
11126;DHT22;5617;54.046;10.676;2023-07-29T04:31:14;18.20;99.90
11126;DHT22;5617;54.046;10.676;2023-07-29T04:33:22;18.20;99.90
11126;DHT22;5617;54.046;10.676;2023-07-29T04:35:30;18.20;99.90
11126;DHT22;5617;54.046;10.676;2023-07-29T04:37:37;18.30;99.90
11126;DHT22;5617;54.046;10.676;2023-07-29T04:39:47;18.30;99.90
11126;DHT22;5617;54.046;10.676;2023-07-29T04:41:55;18.40;99.90
11126;DHT22;5617;54.046;10.676;2023-07-29T04:44:04;18.40;99.90
11126;DHT22;5617;54.046;10.676;2023-07-29T04:46:12;18.40;99.90
11126;DHT22;5617;54.046;10.676;2023-07-29T04:48:19;18.40;99.90
11126;DHT22;5617;54.046;10.676;2023-07-29T04:50:28;18.50;99.90
11126;DHT22;5617;54.046;10.676;2023-07-29T04:52:35;18.50;99.90
11126;DHT22;5617;54.046;10.676;2023-07-29T04:54:43;18.60;99.90
11126;DHT22;5617;54.046;10.676;2023-07-29T04:56:52;18.60;99.90
11126;DHT22;5617;54.046;10.676;2023-07-29T04:59:01;18.60;99.90
11126;DHT22;5617;54.046;10.676;2023-07-29T05:01:09;18.70;99.90
11126;DHT22;5617;54.046;10.676;2023-07-29T05:03:17;18.70;99.90
11126;DHT22;5617;54.046;10.676;2023-07-29T05:05:25;18.70;99.90
11126;DHT22;5617;54.046;10.676;2023-07-29T05:07:33;18.80;99.90
11126;DHT22;5617;54.046;10.676;2023-07-29T05:09:41;18.80;99.90
11126;DHT22;5617;54.046;10.676;2023-07-29T05:11:49;18.80;99.90
11126;DHT22;5617;54.046;10.676;2023-07-29T05:13:59;18.80;99.90
11126;DHT22;5617;54.046;10.676;2023-07-29T05:16:10;18.80;99.90
11126;DHT22;5617;54.046;10.676;2023-07-29T05:18:18;18.70;99.90
11126;DHT22;5617;54.046;10.676;2023-07-29T05:20:25;18.70;99.90
11126;DHT22;5617;54.046;10.676;2023-07-29T05:22:33;18.70;99.90
11126;DHT22;5617;54.046;10.676;2023-07-29T05:24:41;18.80;99.90
11126;DHT22;5617;54.046;10.676;2023-07-29T05:26:49;18.80;99.90
11126;DHT22;5617;54.046;10.676;2023-07-29T05:28:58;18.80;99.90
11126;DHT22;5617;54.046;10.676;2023-07-29T05:31:06;18.80;99.90
11126;DHT22;5617;54.046;10.676;2023-07-29T05:33:14;18.90;99.90
11126;DHT22;5617;54.046;10.676;2023-07-29T05:35:22;19.10;99.90
11126;DHT22;5617;54.046;10.676;2023-07-29T05:37:30;19.00;99.90
11126;DHT22;5617;54.046;10.676;2023-07-29T05:39:40;19.00;99.90
11126;DHT22;5617;54.046;10.676;2023-07-29T05:41:48;19.00;99.90
11126;DHT22;5617;54.046;10.676;2023-07-29T05:43:56;19.00;99.90
11126;DHT22;5617;54.046;10.676;2023-07-29T05:46:05;19.10;99.90
11126;DHT22;5617;54.046;10.676;2023-07-29T05:48:13;19.10;99.90
11126;DHT22;5617;54.046;10.676;2023-07-29T05:50:20;19.10;99.90
11126;DHT22;5617;54.046;10.676;2023-07-29T05:52:29;19.10;99.90
11126;DHT22;5617;54.046;10.676;2023-07-29T05:54:37;19.20;99.90
11126;DHT22;5617;54.046;10.676;2023-07-29T05:56:44;19.20;99.90
11126;DHT22;5617;54.046;10.676;2023-07-29T05:58:52;19.20;99.90
11126;DHT22;5617;54.046;10.676;2023-07-29T06:01:00;19.20;99.90
11126;DHT22;5617;54.046;10.676;2023-07-29T06:03:12;19.20;99.90
11126;DHT22;5617;54.046;10.676;2023-07-29T06:05:20;19.30;99.90
11126;DHT22;5617;54.046;10.676;2023-07-29T06:07:29;19.30;99.90
11126;DHT22;5617;54.046;10.676;2023-07-29T06:09:41;19.30;99.90
11126;DHT22;5617;54.046;10.676;2023-07-29T06:11:49;19.30;99.90
11126;DHT22;5617;54.046;10.676;2023-07-29T06:14:01;19.30;99.90
11126;DHT22;5617;54.046;10.676;2023-07-29T06:16:08;19.40;99.90
11126;DHT22;5617;54.046;10.676;2023-07-29T06:18:18;19.40;99.90
11126;DHT22;5617;54.046;10.676;2023-07-29T06:20:25;19.40;99.90
11126;DHT22;5617;54.046;10.676;2023-07-29T06:22:34;19.40;99.90
11126;DHT22;5617;54.046;10.676;2023-07-29T06:24:41;19.40;99.90
11126;DHT22;5617;54.046;10.676;2023-07-29T06:26:51;19.50;99.90
11126;DHT22;5617;54.046;10.676;2023-07-29T06:28:59;19.60;99.90
11126;DHT22;5617;54.046;10.676;2023-07-29T06:31:07;19.60;99.90
11126;DHT22;5617;54.046;10.676;2023-07-29T06:33:15;19.70;99.90
11126;DHT22;5617;54.046;10.676;2023-07-29T06:35:25;19.70;99.90
11126;DHT22;5617;54.046;10.676;2023-07-29T06:37:33;19.80;99.90
11126;DHT22;5617;54.046;10.676;2023-07-29T06:39:40;19.90;99.90
11126;DHT22;5617;54.046;10.676;2023-07-29T06:41:49;20.00;99.90
11126;DHT22;5617;54.046;10.676;2023-07-29T06:43:57;20.10;99.90
11126;DHT22;5617;54.046;10.676;2023-07-29T06:46:04;20.20;99.90
11126;DHT22;5617;54.046;10.676;2023-07-29T06:48:13;20.30;99.90
11126;DHT22;5617;54.046;10.676;2023-07-29T06:50:21;20.30;99.90
11126;DHT22;5617;54.046;10.676;2023-07-29T06:52:31;20.40;99.90
11126;DHT22;5617;54.046;10.676;2023-07-29T06:54:39;20.40;99.90
11126;DHT22;5617;54.046;10.676;2023-07-29T06:56:47;20.50;99.90
11126;DHT22;5617;54.046;10.676;2023-07-29T06:58:55;20.60;99.90
11126;DHT22;5617;54.046;10.676;2023-07-29T07:01:03;20.70;99.90
11126;DHT22;5617;54.046;10.676;2023-07-29T07:03:12;20.80;99.90
11126;DHT22;5617;54.046;10.676;2023-07-29T07:05:20;20.90;99.90
11126;DHT22;5617;54.046;10.676;2023-07-29T07:07:28;20.90;99.90
11126;DHT22;5617;54.046;10.676;2023-07-29T07:09:38;21.00;99.90
11126;DHT22;5617;54.046;10.676;2023-07-29T07:11:46;21.00;99.90
11126;DHT22;5617;54.046;10.676;2023-07-29T07:13:54;21.00;99.90
11126;DHT22;5617;54.046;10.676;2023-07-29T07:16:02;21.10;99.90
11126;DHT22;5617;54.046;10.676;2023-07-29T07:18:10;21.20;99.90
11126;DHT22;5617;54.046;10.676;2023-07-29T07:20:20;21.40;99.90
11126;DHT22;5617;54.046;10.676;2023-07-29T07:22:28;21.40;99.90
11126;DHT22;5617;54.046;10.676;2023-07-29T07:24:37;21.50;99.90
11126;DHT22;5617;54.046;10.676;2023-07-29T07:26:45;21.60;99.90
11126;DHT22;5617;54.046;10.676;2023-07-29T07:28:53;21.60;99.90
11126;DHT22;5617;54.046;10.676;2023-07-29T07:31:01;21.60;99.90
11126;DHT22;5617;54.046;10.676;2023-07-29T07:33:09;21.60;99.90
11126;DHT22;5617;54.046;10.676;2023-07-29T07:35:17;21.60;99.90
11126;DHT22;5617;54.046;10.676;2023-07-29T07:37:25;21.60;99.90
11126;DHT22;5617;54.046;10.676;2023-07-29T07:39:33;21.60;99.90
11126;DHT22;5617;54.046;10.676;2023-07-29T07:41:42;21.70;99.90
11126;DHT22;5617;54.046;10.676;2023-07-29T07:43:50;21.80;99.90
11126;DHT22;5617;54.046;10.676;2023-07-29T07:45:59;21.90;99.90
11126;DHT22;5617;54.046;10.676;2023-07-29T07:48:08;21.90;99.90
11126;DHT22;5617;54.046;10.676;2023-07-29T07:50:17;22.00;99.90
11126;DHT22;5617;54.046;10.676;2023-07-29T07:52:25;22.00;99.90
11126;DHT22;5617;54.046;10.676;2023-07-29T07:54:33;22.10;99.90
11126;DHT22;5617;54.046;10.676;2023-07-29T07:56:43;22.20;99.90
11126;DHT22;5617;54.046;10.676;2023-07-29T07:58:51;22.50;99.90
11126;DHT22;5617;54.046;10.676;2023-07-29T08:01:02;22.60;99.90
11126;DHT22;5617;54.046;10.676;2023-07-29T08:03:11;22.70;99.90
11126;DHT22;5617;54.046;10.676;2023-07-29T08:05:20;22.70;99.90
11126;DHT22;5617;54.046;10.676;2023-07-29T08:07:27;22.70;99.90
11126;DHT22;5617;54.046;10.676;2023-07-29T08:09:35;22.70;99.90
11126;DHT22;5617;54.046;10.676;2023-07-29T08:11:45;22.70;99.90
11126;DHT22;5617;54.046;10.676;2023-07-29T08:13:52;22.70;99.90
11126;DHT22;5617;54.046;10.676;2023-07-29T08:16:01;22.60;99.90
11126;DHT22;5617;54.046;10.676;2023-07-29T08:18:09;22.50;99.90
11126;DHT22;5617;54.046;10.676;2023-07-29T08:20:17;22.50;99.90
11126;DHT22;5617;54.046;10.676;2023-07-29T08:22:25;22.40;99.90
11126;DHT22;5617;54.046;10.676;2023-07-29T08:24:33;22.40;99.90
11126;DHT22;5617;54.046;10.676;2023-07-29T08:26:40;22.40;99.90
11126;DHT22;5617;54.046;10.676;2023-07-29T08:28:50;22.50;99.90
11126;DHT22;5617;54.046;10.676;2023-07-29T08:31:02;22.50;99.90
11126;DHT22;5617;54.046;10.676;2023-07-29T08:33:11;22.50;99.90
11126;DHT22;5617;54.046;10.676;2023-07-29T08:35:19;22.50;99.90
11126;DHT22;5617;54.046;10.676;2023-07-29T08:37:27;22.40;99.90
11126;DHT22;5617;54.046;10.676;2023-07-29T08:39:36;22.40;99.90
11126;DHT22;5617;54.046;10.676;2023-07-29T08:41:50;22.30;99.90
11126;DHT22;5617;54.046;10.676;2023-07-29T08:44:10;22.30;99.90
11126;DHT22;5617;54.046;10.676;2023-07-29T08:46:23;22.30;99.90
11126;DHT22;5617;54.046;10.676;2023-07-29T08:48:34;22.30;99.90
11126;DHT22;5617;54.046;10.676;2023-07-29T08:50:44;22.40;99.90
11126;DHT22;5617;54.046;10.676;2023-07-29T08:52:53;22.40;99.90
11126;DHT22;5617;54.046;10.676;2023-07-29T08:55:01;22.40;99.90
11126;DHT22;5617;54.046;10.676;2023-07-29T08:57:08;22.40;99.90
11126;DHT22;5617;54.046;10.676;2023-07-29T08:59:19;22.40;99.90
11126;DHT22;5617;54.046;10.676;2023-07-29T09:01:27;22.40;99.90
11126;DHT22;5617;54.046;10.676;2023-07-29T09:03:37;22.40;99.90
11126;DHT22;5617;54.046;10.676;2023-07-29T09:05:46;22.40;99.90
11126;DHT22;5617;54.046;10.676;2023-07-29T09:07:55;22.50;99.90
11126;DHT22;5617;54.046;10.676;2023-07-29T09:10:03;22.50;99.90
11126;DHT22;5617;54.046;10.676;2023-07-29T09:12:11;22.50;99.90
11126;DHT22;5617;54.046;10.676;2023-07-29T09:14:21;22.50;99.90
11126;DHT22;5617;54.046;10.676;2023-07-29T09:16:30;22.40;99.90
11126;DHT22;5617;54.046;10.676;2023-07-29T09:18:38;22.40;99.90
11126;DHT22;5617;54.046;10.676;2023-07-29T09:20:47;22.30;99.90
11126;DHT22;5617;54.046;10.676;2023-07-29T09:22:58;22.30;99.90
11126;DHT22;5617;54.046;10.676;2023-07-29T09:25:07;22.30;99.90
11126;DHT22;5617;54.046;10.676;2023-07-29T09:27:25;22.30;99.90
11126;DHT22;5617;54.046;10.676;2023-07-29T09:29:36;22.30;99.90
11126;DHT22;5617;54.046;10.676;2023-07-29T09:31:44;22.30;99.90
11126;DHT22;5617;54.046;10.676;2023-07-29T09:33:55;22.20;99.90
11126;DHT22;5617;54.046;10.676;2023-07-29T09:36:08;22.10;99.90
11126;DHT22;5617;54.046;10.676;2023-07-29T09:38:17;22.10;99.90
11126;DHT22;5617;54.046;10.676;2023-07-29T09:40:25;22.00;99.90
11126;DHT22;5617;54.046;10.676;2023-07-29T09:42:33;21.90;99.90
11126;DHT22;5617;54.046;10.676;2023-07-29T09:44:43;21.80;99.90
11126;DHT22;5617;54.046;10.676;2023-07-29T09:46:51;21.70;99.90
11126;DHT22;5617;54.046;10.676;2023-07-29T09:48:59;21.80;99.90
11126;DHT22;5617;54.046;10.676;2023-07-29T09:51:11;21.90;99.90
11126;DHT22;5617;54.046;10.676;2023-07-29T09:53:19;21.90;99.90
11126;DHT22;5617;54.046;10.676;2023-07-29T09:55:27;22.00;99.90
11126;DHT22;5617;54.046;10.676;2023-07-29T09:57:35;22.10;99.90
11126;DHT22;5617;54.046;10.676;2023-07-29T09:59:54;22.20;99.90
11126;DHT22;5617;54.046;10.676;2023-07-29T10:02:04;22.30;99.90
11126;DHT22;5617;54.046;10.676;2023-07-29T10:04:15;22.50;99.90
11126;DHT22;5617;54.046;10.676;2023-07-29T10:06:23;22.80;99.90
11126;DHT22;5617;54.046;10.676;2023-07-29T10:08:33;23.00;99.90
11126;DHT22;5617;54.046;10.676;2023-07-29T10:10:42;23.20;99.90
11126;DHT22;5617;54.046;10.676;2023-07-29T10:12:50;23.30;99.90
11126;DHT22;5617;54.046;10.676;2023-07-29T10:15:04;23.20;99.90
11126;DHT22;5617;54.046;10.676;2023-07-29T10:17:13;23.20;99.90
11126;DHT22;5617;54.046;10.676;2023-07-29T10:19:24;23.10;99.90
11126;DHT22;5617;54.046;10.676;2023-07-29T10:21:39;23.00;99.90
11126;DHT22;5617;54.046;10.676;2023-07-29T10:23:47;23.00;99.90
11126;DHT22;5617;54.046;10.676;2023-07-29T10:26:02;23.20;99.90
11126;DHT22;5617;54.046;10.676;2023-07-29T10:28:12;23.40;99.90
11126;DHT22;5617;54.046;10.676;2023-07-29T10:30:22;23.60;99.90
11126;DHT22;5617;54.046;10.676;2023-07-29T10:32:32;23.80;99.90
11126;DHT22;5617;54.046;10.676;2023-07-29T10:34:40;24.00;99.90
11126;DHT22;5617;54.046;10.676;2023-07-29T10:36:52;24.10;99.90
11126;DHT22;5617;54.046;10.676;2023-07-29T10:39:00;24.10;99.90
11126;DHT22;5617;54.046;10.676;2023-07-29T10:41:09;24.20;99.90
11126;DHT22;5617;54.046;10.676;2023-07-29T10:43:19;24.30;99.90
11126;DHT22;5617;54.046;10.676;2023-07-29T10:45:38;24.50;99.90
11126;DHT22;5617;54.046;10.676;2023-07-29T10:47:47;24.70;99.90
11126;DHT22;5617;54.046;10.676;2023-07-29T10:49:56;24.90;99.90
11126;DHT22;5617;54.046;10.676;2023-07-29T10:52:07;25.10;99.90
11126;DHT22;5617;54.046;10.676;2023-07-29T10:54:15;25.40;99.90
11126;DHT22;5617;54.046;10.676;2023-07-29T10:56:27;25.60;99.90
11126;DHT22;5617;54.046;10.676;2023-07-29T10:58:36;25.80;99.90
11126;DHT22;5617;54.046;10.676;2023-07-29T11:00:46;26.00;99.90
11126;DHT22;5617;54.046;10.676;2023-07-29T11:02:59;26.10;99.90
11126;DHT22;5617;54.046;10.676;2023-07-29T11:05:16;26.20;99.90
11126;DHT22;5617;54.046;10.676;2023-07-29T11:07:25;26.20;99.90
11126;DHT22;5617;54.046;10.676;2023-07-29T11:09:39;26.00;99.70
11126;DHT22;5617;54.046;10.676;2023-07-29T11:11:50;26.10;99.50
11126;DHT22;5617;54.046;10.676;2023-07-29T11:13:59;26.20;99.00
11126;DHT22;5617;54.046;10.676;2023-07-29T11:16:16;26.20;97.80
11126;DHT22;5617;54.046;10.676;2023-07-29T11:18:27;26.20;97.80
11126;DHT22;5617;54.046;10.676;2023-07-29T11:20:36;26.10;97.40
11126;DHT22;5617;54.046;10.676;2023-07-29T11:22:44;26.20;96.80
11126;DHT22;5617;54.046;10.676;2023-07-29T11:24:52;26.10;96.50
11126;DHT22;5617;54.046;10.676;2023-07-29T11:27:00;26.10;96.50
11126;DHT22;5617;54.046;10.676;2023-07-29T11:29:09;26.20;96.20
11126;DHT22;5617;54.046;10.676;2023-07-29T11:31:18;26.20;96.30
11126;DHT22;5617;54.046;10.676;2023-07-29T11:33:27;26.10;96.30
11126;DHT22;5617;54.046;10.676;2023-07-29T11:35:35;25.90;95.40
11126;DHT22;5617;54.046;10.676;2023-07-29T11:37:45;25.70;95.10
11126;DHT22;5617;54.046;10.676;2023-07-29T11:39:53;25.60;95.50
11126;DHT22;5617;54.046;10.676;2023-07-29T11:42:00;25.50;95.50
11126;DHT22;5617;54.046;10.676;2023-07-29T11:44:10;25.50;95.60
11126;DHT22;5617;54.046;10.676;2023-07-29T11:46:25;25.40;95.50
11126;DHT22;5617;54.046;10.676;2023-07-29T11:48:33;25.40;95.30
11126;DHT22;5617;54.046;10.676;2023-07-29T11:50:41;25.40;95.30
11126;DHT22;5617;54.046;10.676;2023-07-29T11:52:49;25.30;95.00
11126;DHT22;5617;54.046;10.676;2023-07-29T11:54:59;25.30;94.90
11126;DHT22;5617;54.046;10.676;2023-07-29T11:57:08;25.20;95.10
11126;DHT22;5617;54.046;10.676;2023-07-29T11:59:17;25.20;95.00
11126;DHT22;5617;54.046;10.676;2023-07-29T12:01:27;25.20;94.60
11126;DHT22;5617;54.046;10.676;2023-07-29T12:03:36;25.10;94.50
11126;DHT22;5617;54.046;10.676;2023-07-29T12:05:44;25.00;94.70
11126;DHT22;5617;54.046;10.676;2023-07-29T12:07:57;24.80;94.70
11126;DHT22;5617;54.046;10.676;2023-07-29T12:10:06;24.70;95.00
11126;DHT22;5617;54.046;10.676;2023-07-29T12:12:14;24.60;95.40
11126;DHT22;5617;54.046;10.676;2023-07-29T12:14:25;24.40;95.70
11126;DHT22;5617;54.046;10.676;2023-07-29T12:16:41;24.40;96.00
11126;DHT22;5617;54.046;10.676;2023-07-29T12:18:50;24.50;96.20
11126;DHT22;5617;54.046;10.676;2023-07-29T12:20:58;24.60;95.80
11126;DHT22;5617;54.046;10.676;2023-07-29T12:23:07;24.70;95.90
11126;DHT22;5617;54.046;10.676;2023-07-29T12:25:15;24.80;96.10
11126;DHT22;5617;54.046;10.676;2023-07-29T12:27:22;24.80;96.00
11126;DHT22;5617;54.046;10.676;2023-07-29T12:29:30;24.80;96.00
11126;DHT22;5617;54.046;10.676;2023-07-29T12:31:38;25.00;95.90
11126;DHT22;5617;54.046;10.676;2023-07-29T12:33:47;25.10;95.70
11126;DHT22;5617;54.046;10.676;2023-07-29T12:35:55;25.30;95.70
11126;DHT22;5617;54.046;10.676;2023-07-29T12:38:03;25.40;95.30
11126;DHT22;5617;54.046;10.676;2023-07-29T12:40:22;25.50;95.00
11126;DHT22;5617;54.046;10.676;2023-07-29T12:42:30;25.50;95.00
11126;DHT22;5617;54.046;10.676;2023-07-29T12:44:38;25.60;95.10
11126;DHT22;5617;54.046;10.676;2023-07-29T12:46:46;25.80;94.80
11126;DHT22;5617;54.046;10.676;2023-07-29T12:48:56;26.10;94.90
11126;DHT22;5617;54.046;10.676;2023-07-29T12:51:03;26.40;94.30
11126;DHT22;5617;54.046;10.676;2023-07-29T12:53:11;26.70;93.90
11126;DHT22;5617;54.046;10.676;2023-07-29T12:55:19;27.00;94.10
11126;DHT22;5617;54.046;10.676;2023-07-29T12:57:31;27.20;92.90
11126;DHT22;5617;54.046;10.676;2023-07-29T12:59:39;27.30;92.50
11126;DHT22;5617;54.046;10.676;2023-07-29T13:01:47;27.30;91.60
11126;DHT22;5617;54.046;10.676;2023-07-29T13:03:55;27.30;91.20
11126;DHT22;5617;54.046;10.676;2023-07-29T13:06:03;27.20;91.10
11126;DHT22;5617;54.046;10.676;2023-07-29T13:08:11;27.10;91.00
11126;DHT22;5617;54.046;10.676;2023-07-29T13:10:19;27.30;91.00
11126;DHT22;5617;54.046;10.676;2023-07-29T13:12:28;27.40;90.90
11126;DHT22;5617;54.046;10.676;2023-07-29T13:14:35;27.50;90.10
11126;DHT22;5617;54.046;10.676;2023-07-29T13:16:43;27.70;89.50
11126;DHT22;5617;54.046;10.676;2023-07-29T13:18:51;27.70;89.30
11126;DHT22;5617;54.046;10.676;2023-07-29T13:21:01;27.70;88.80
11126;DHT22;5617;54.046;10.676;2023-07-29T13:23:09;27.80;88.60
11126;DHT22;5617;54.046;10.676;2023-07-29T13:25:17;27.70;87.60
11126;DHT22;5617;54.046;10.676;2023-07-29T13:27:25;27.60;87.20
11126;DHT22;5617;54.046;10.676;2023-07-29T13:29:33;27.60;87.50
11126;DHT22;5617;54.046;10.676;2023-07-29T13:31:41;27.70;88.80
11126;DHT22;5617;54.046;10.676;2023-07-29T13:33:49;27.70;87.40
11126;DHT22;5617;54.046;10.676;2023-07-29T13:35:57;27.70;86.70